Latest Weather Observations for Eildon Fire Tower

IDV60801

Issued at 6:32 am EST Monday 26 June 2017 (issued every 30 minutes, with the page automatically refreshed every 10 minutes)

About weather observations | Map of weather stations | Latest weather observations for VIC | Other Formats
Station Details ID: 088164 Name: EILDON FIRE TOWER Lat: -37.21 Lon: 145.84 Height: 637.0 m
Data from the previous 72 hours. | See also: Recent months at Eildon Fire Tower
Date/Time
EST
Temp
°C
App
Temp
°C
Dew
Point
°C
Rel
Hum
%
Delta-T
°C
Wind Press
QNH
hPa
Press
MSL
hPa
Rain since
9am
mm
Dir  Spd
km/h
Gust
km/h
Spd
kts
Gust
kts
26/06:30am 5.1 1.8 4.8 98 0.1 W 11 15 6 8 - - 0.8
26/06:00am 5.1 2.2 4.8 98 0.1 W 9 13 5 7 - - 0.8
26/05:30am 5.2 2.0 4.9 98 0.1 W 11 15 6 8 - - 0.8
26/05:00am 5.4 2.2 5.0 97 0.2 W 11 15 6 8 - - 0.8
26/04:30am 5.4 2.2 5.0 97 0.2 W 11 17 6 9 - - 0.8
26/04:00am 5.4 1.8 5.0 97 0.2 W 13 17 7 9 - - 0.8
26/03:30am 5.5 1.5 5.1 97 0.2 W 15 19 8 10 - - 0.8
26/03:00am 5.5 1.9 5.1 97 0.2 WSW 13 19 7 10 - - 0.8
26/02:30am 5.5 0.8 5.1 97 0.2 WSW 19 24 10 13 - - 0.6
26/02:00am 5.6 1.2 5.0 96 0.3 W 17 20 9 11 - - 0.6
26/01:30am 5.7 1.7 5.1 96 0.3 W 15 19 8 10 - - 0.6
26/01:00am 5.8 2.2 5.1 95 0.3 W 13 17 7 9 - - 0.6
26/12:30am 6.0 2.8 5.1 94 0.4 W 11 17 6 9 - - 0.6
26/12:00am 6.0 2.8 5.1 94 0.4 WNW 11 19 6 10 - - 0.6
 
Date/Time
EST
Temp
°C
App
Temp
°C
Dew
Point
°C
Rel
Hum
%
Delta-T
°C
Wind Press
QNH
hPa
Press
MSL
hPa
Rain since
9am
mm
Dir  Spd
km/h
Gust
km/h
Spd
kts
Gust
kts
25/11:30pm 6.0 2.4 5.1 94 0.4 WNW 13 19 7 10 - - 0.6
25/11:00pm 6.1 2.5 5.1 93 0.5 WNW 13 19 7 10 - - 0.6
25/10:30pm 6.1 2.9 5.1 93 0.5 WNW 11 17 6 9 - - 0.6
25/10:00pm 6.3 2.3 5.1 92 0.5 W 15 26 8 14 - - 0.6
25/09:30pm 6.4 3.2 5.0 91 0.6 WNW 11 19 6 10 - - 0.6
25/09:00pm 6.4 3.2 5.2 92 0.5 WNW 11 20 6 11 - - 0.6
25/08:30pm 6.4 3.2 5.2 92 0.5 WNW 11 20 6 11 - - 0.6
25/08:00pm 6.2 3.0 5.2 93 0.5 NW 11 19 6 10 - - 0.6
25/07:30pm 5.9 2.7 5.0 94 0.4 WNW 11 17 6 9 - - 0.6
25/07:00pm 6.2 3.7 5.0 92 0.5 WNW 7 17 4 9 - - 0.6
25/06:30pm 6.1 3.6 4.9 92 0.5 NW 7 15 4 8 - - 0.6
25/06:00pm 5.8 3.2 4.4 91 0.6 W 7 15 4 8 - - 0.6
25/05:30pm 5.8 3.2 4.4 91 0.6 NW 7 15 4 8 - - 0.6
25/05:00pm 5.7 3.1 4.2 90 0.7 N 7 17 4 9 - - 0.6
25/04:30pm 6.1 3.7 4.1 87 0.9 NW 6 9 3 5 - - 0.6
25/04:00pm 6.1 3.0 3.8 85 1.0 NW 9 15 5 8 - - 0.6
25/03:30pm 6.1 2.7 3.8 85 1.0 NNW 11 15 6 8 - - 0.6
25/03:00pm 6.2 3.5 3.5 83 1.2 N 7 15 4 8 - - 0.6
25/02:30pm 6.0 2.5 3.3 83 1.2 WNW 11 19 6 10 - - 0.6
25/02:00pm 6.7 3.9 3.3 79 1.5 NNW 7 15 4 8 - - 0.6
25/01:30pm 5.9 3.2 2.9 81 1.3 N 6 9 3 5 - - 0.6
25/01:00pm 6.3 3.7 3.1 80 1.4 NNW 6 11 3 6 - - 0.6
25/12:30pm 5.5 2.6 2.8 83 1.2 NW 7 13 4 7 - - 0.6
25/12:00pm 4.4 1.0 2.1 85 1.0 WNW 9 13 5 7 - - 0.4
25/11:30am 4.9 2.5 1.9 81 1.2 NW 4 7 2 4 - - 0.2
25/11:00am 5.0 2.4 1.1 76 1.6 NNE 4 7 2 4 - - 0.2
25/10:30am 5.0 1.8 0.6 73 1.8 NNE 7 13 4 7 - - 0.2
25/10:00am 4.3 0.5 1.5 82 1.1 NNW 11 17 6 9 - - 0.2
25/09:30am 4.5 1.5 0.8 77 1.5 N 6 9 3 5 - - 0.0
25/09:00am 4.2 0.6 0.4 76 1.5 NNW 9 15 5 8 - - 0.0
25/08:30am 4.0 0.7 0.3 77 1.5 NNW 7 11 4 6 - - 0.0
25/08:00am 4.0 -0.1 0.0 75 1.6 NNW 11 15 6 8 - - 0.0
25/07:30am 3.6 0.0 0.5 80 1.2 NW 9 15 5 8 - - 0.0
25/07:00am 3.5 -0.2 0.0 78 1.4 NW 9 13 5 7 - - 0.0
25/06:30am 3.6 -0.1 0.0 77 1.4 W 9 13 5 7 - - 0.0
25/06:00am 4.3 0.2 -0.5 71 1.9 WNW 11 17 6 9 - - 0.0
25/05:30am 4.7 0.1 -0.7 68 2.1 WNW 13 17 7 9 - - 0.0
25/05:00am 4.6 0.8 -1.0 67 2.2 W 9 13 5 7 - - 0.0
25/04:30am 4.3 0.1 -1.1 68 2.1 W 11 15 6 8 - - 0.0
25/04:00am 4.5 0.3 -1.1 67 2.2 W 11 15 6 8 - - 0.0
25/03:30am 4.5 1.0 -1.3 66 2.2 NW 7 11 4 6 - - 0.0
25/03:00am 4.5 0.2 -1.3 66 2.2 WNW 11 17 6 9 - - 0.0
25/02:30am 4.5 0.6 -1.7 64 2.3 W 9 15 5 8 - - 0.0
25/02:00am 4.4 0.8 -1.8 64 2.3 NW 7 11 4 6 - - 0.0
25/01:30am 4.2 0.3 -1.4 67 2.1 W 9 13 5 7 - - 0.0
25/01:00am 4.1 -0.5 -0.9 70 1.9 W 13 19 7 10 - - 0.0
25/12:30am 4.2 0.0 -0.8 70 1.9 W 11 15 6 8 - - 0.0
25/12:00am 4.2 -0.3 -0.4 72 1.8 W 13 22 7 12 - - 0.0
 
Date/Time
EST
Temp
°C
App
Temp
°C
Dew
Point
°C
Rel
Hum
%
Delta-T
°C
Wind Press
QNH
hPa
Press
MSL
hPa
Rain since
9am
mm
Dir  Spd
km/h
Gust
km/h
Spd
kts
Gust
kts
24/11:30pm 4.3 -0.6 -0.3 72 1.8 W 15 20 8 11 - - 0.0
24/11:00pm 4.6 0.1 -0.2 71 1.9 W 13 20 7 11 - - 0.0
24/10:30pm 4.7 0.5 -0.7 68 2.1 WNW 11 15 6 8 - - 0.0
24/10:00pm 4.9 1.7 -0.3 69 2.0 WNW 6 9 3 5 - - 0.0
24/09:30pm 5.0 1.7 0.0 70 2.0 W 7 9 4 5 - - 0.0
24/09:00pm 5.1 1.0 -0.3 68 2.1 W 11 20 6 11 - - 0.0
24/08:30pm 5.3 1.6 -0.1 68 2.1 W 9 13 5 7 - - 0.0
24/08:00pm 5.4 2.1 -0.2 67 2.2 WNW 7 13 4 7 - - 0.0
24/07:30pm 5.3 2.2 1.2 75 1.7 W 7 9 4 5 - - 0.0
24/07:00pm 5.1 2.3 1.9 80 1.3 W 6 7 3 4 - - 0.0
24/06:30pm 5.1 2.1 1.9 80 1.3 W 7 9 4 5 - - 0.0
24/06:00pm 5.2 1.8 2.0 80 1.3 W 9 11 5 6 - - 0.0
24/05:30pm 5.3 2.3 2.0 79 1.4 W 7 9 4 5 - - 0.0
24/05:00pm 5.4 2.0 1.9 78 1.5 W 9 13 5 7 - - 0.0
24/04:30pm 5.7 1.9 1.6 75 1.7 WSW 11 13 6 7 - - 0.0
24/04:00pm 5.9 1.7 1.8 75 1.7 WSW 13 17 7 9 - - 0.0
24/03:30pm 6.9 2.9 2.6 74 1.9 WSW 13 17 7 9 - - 0.0
24/03:00pm 7.7 3.6 2.0 67 2.4 W 13 19 7 10 - - 0.0
24/02:30pm 7.3 2.5 0.5 62 2.8 WSW 15 19 8 10 - - 0.0
24/02:00pm 7.5 3.4 2.0 68 2.4 W 13 19 7 10 - - 0.0
24/01:30pm 7.1 1.7 1.4 67 2.4 W 19 24 10 13 - - 0.0
24/01:00pm 7.1 1.6 2.0 70 2.2 WSW 20 24 11 13 - - 0.0
24/12:30pm 8.2 4.0 1.6 63 2.8 WSW 13 19 7 10 - - 0.0
24/12:00pm 6.8 2.8 0.7 65 2.5 W 11 17 6 9 - - 0.0
24/11:30am 6.2 1.8 0.5 67 2.3 WSW 13 22 7 12 - - 0.0
24/11:00am 6.8 1.7 0.7 65 2.5 WSW 17 28 9 15 - - 0.0
24/10:30am 6.4 2.5 1.3 70 2.1 WSW 11 19 6 10 - - 0.0
24/10:00am 5.8 1.4 2.8 81 1.3 WSW 15 22 8 12 - - 0.0
24/09:30am 4.9 1.1 3.7 92 0.5 W 13 15 7 8 - - 0.0
24/09:00am 4.7 1.6 3.7 93 0.4 W 9 11 5 6 - - 0.0
24/08:30am 4.5 1.0 3.6 94 0.4 W 11 15 6 8 - - 0.0
24/08:00am 4.5 0.3 3.6 94 0.4 W 15 19 8 10 - - 0.0
24/07:30am 4.4 0.1 3.4 93 0.4 WSW 15 20 8 11 - - 0.0
24/07:00am 4.5 -0.5 3.8 95 0.3 WSW 19 28 10 15 - - 0.0
24/06:30am 5.1 0.2 4.2 94 0.4 WSW 19 32 10 17 - - 0.0
24/06:00am 5.3 0.5 4.7 96 0.3 WSW 19 26 10 14 - - 0.0
24/05:30am 5.5 1.1 4.8 95 0.3 WSW 17 24 9 13 - - 0.0
24/05:00am 5.8 0.9 5.1 95 0.3 WSW 20 28 11 15 - - 0.0
24/04:30am 6.0 0.3 5.1 94 0.4 WSW 24 30 13 16 - - 0.0
24/04:00am 6.0 0.7 5.0 93 0.5 W 22 28 12 15 - - 0.0
24/03:30am 5.9 0.6 5.0 94 0.4 WSW 22 28 12 15 - - 0.0
24/03:00am 6.0 0.3 5.0 93 0.5 W 24 30 13 16 - - 0.0
24/02:30am 6.1 0.4 4.9 92 0.5 WSW 24 30 13 16 - - 0.0
24/02:00am 6.0 0.7 4.8 92 0.5 W 22 28 12 15 - - 0.0
24/01:30am 6.0 1.9 4.5 90 0.7 WSW 15 20 8 11 - - 0.0
24/01:00am 6.7 3.0 4.5 86 1.0 WNW 13 17 7 9 - - 0.0
24/12:30am 6.7 3.8 4.7 87 0.9 NW 9 13 5 7 - - 0.0
24/12:00am 6.8 3.9 4.8 87 0.9 WNW 9 17 5 9 - - 0.0
 
Date/Time
EST
Temp
°C
App
Temp
°C
Dew
Point
°C
Rel
Hum
%
Delta-T
°C
Wind Press
QNH
hPa
Press
MSL
hPa
Rain since
9am
mm
Dir  Spd
km/h
Gust
km/h
Spd
kts
Gust
kts
23/11:30pm 6.7 2.7 4.7 87 0.9 WNW 15 19 8 10 - - 0.0
23/11:00pm 6.7 3.0 4.7 87 0.9 W 13 24 7 13 - - 0.0
23/10:30pm 7.1 2.7 4.8 85 1.0 WNW 17 24 9 13 - - 0.0
23/10:00pm 7.1 3.5 4.8 85 1.0 NW 13 22 7 12 - - 0.0
23/09:30pm 6.9 4.0 4.9 87 0.9 WNW 9 15 5 8 - - 0.0
23/09:00pm 6.5 3.2 4.3 86 1.0 W 11 15 6 8 - - 0.0
23/08:30pm 6.8 3.9 4.6 86 1.0 NW 9 15 5 8 - - 0.0
23/08:00pm 6.8 3.4 4.1 83 1.2 WNW 11 17 6 9 - - 0.0
23/07:30pm 6.7 3.7 3.9 82 1.2 NNW 9 19 5 10 - - 0.0
23/07:00pm 6.7 3.3 3.9 82 1.2 NW 11 17 6 9 - - 0.0
23/06:30pm 6.6 5.2 3.4 80 1.4 CALM 0 2 0 1 - - 0.0
23/06:00pm 6.8 3.7 3.6 80 1.4 N 9 17 5 9 - - 0.0
23/05:30pm 6.7 3.6 3.5 80 1.4 N 9 15 5 8 - - 0.0
23/05:00pm 6.6 3.8 3.4 80 1.4 NW 7 11 4 6 - - 0.0
23/04:30pm 6.8 3.6 3.2 78 1.6 NW 9 15 5 8 - - 0.0
23/04:00pm 7.1 3.9 3.3 77 1.7 NNW 9 13 5 7 - - 0.0
23/03:30pm 8.4 4.9 3.5 71 2.2 NNW 11 17 6 9 - - 0.0
23/03:00pm 7.5 3.1 2.8 72 2.0 NNW 15 24 8 13 - - 0.0
23/02:30pm 8.3 4.6 2.1 65 2.7 N 11 22 6 12 - - 0.0
23/02:00pm 9.1 5.6 3.3 67 2.6 NNW 11 19 6 10 - - 0.0
23/01:30pm 9.1 6.6 3.5 68 2.5 NW 6 15 3 8 - - 0.0
23/01:00pm 8.3 4.0 3.0 69 2.3 NW 15 22 8 12 - - 0.0
23/12:30pm 8.5 5.6 4.5 76 1.8 WNW 9 13 5 7 - - 0.0
23/12:00pm 7.3 4.3 4.1 80 1.4 W 9 13 5 7 - - 0.0
23/11:30am 7.2 4.4 3.3 76 1.7 W 7 9 4 5 - - 0.0
23/11:00am 7.1 5.0 3.9 80 1.4 WNW 4 7 2 4 - - 0.0
23/10:30am 6.4 3.8 3.4 81 1.3 NNE 6 7 3 4 - - 0.0
23/10:00am 6.3 3.3 4.0 85 1.0 N 9 15 5 8 - - 0.0
23/09:30am 5.3 1.1 4.0 91 0.6 N 15 22 8 12 - - 0.0
23/09:00am 3.9 0.4 3.3 96 0.3 N 11 15 6 8 - - 0.2
23/08:30am 3.8 0.7 3.4 97 0.2 N 9 15 5 8 - - 0.2
23/08:00am 3.4 -0.6 3.0 97 0.2 N 13 19 7 10 - - 0.2
23/07:30am 2.8 -0.5 2.4 97 0.2 NNE 9 11 5 6 - - 0.0
23/07:00am 3.0 0.1 2.6 97 0.2 NE 7 11 4 6 - - 0.0

Other Formats:

Comma delimited format used in spreadsheet applications
http://www.bom.gov.au/fwo/IDV60801/IDV60801.94881.axf

JavaScript Object Notation format (JSON) in row-major order
http://www.bom.gov.au/fwo/IDV60801/IDV60801.94881.json